sensor_id;sensor_type;location;lat;lon;timestamp;P1;durP1;ratioP1;P2;durP2;ratioP2
40555;SDS011;26250;45.422;11.100;2024-03-07T00:01:21;3.83;;;2.53;;
40555;SDS011;26250;45.422;11.100;2024-03-07T00:03:48;4.63;;;2.80;;
40555;SDS011;26250;45.422;11.100;2024-03-07T00:06:16;3.85;;;2.42;;
40555;SDS011;26250;45.422;11.100;2024-03-07T00:08:43;6.47;;;2.95;;
40555;SDS011;26250;45.422;11.100;2024-03-07T00:11:10;5.15;;;2.40;;
40555;SDS011;26250;45.422;11.100;2024-03-07T00:13:38;2.45;;;2.25;;
40555;SDS011;26250;45.422;11.100;2024-03-07T00:16:05;4.38;;;3.00;;
40555;SDS011;26250;45.422;11.100;2024-03-07T00:18:32;4.40;;;2.97;;
40555;SDS011;26250;45.422;11.100;2024-03-07T00:21:01;6.05;;;2.58;;
40555;SDS011;26250;45.422;11.100;2024-03-07T00:23:29;3.05;;;2.50;;
40555;SDS011;26250;45.422;11.100;2024-03-07T00:25:57;2.97;;;2.63;;
40555;SDS011;26250;45.422;11.100;2024-03-07T00:28:24;4.20;;;2.65;;
40555;SDS011;26250;45.422;11.100;2024-03-07T00:30:55;3.08;;;2.20;;
40555;SDS011;26250;45.422;11.100;2024-03-07T00:33:22;4.68;;;2.42;;
40555;SDS011;26250;45.422;11.100;2024-03-07T00:35:49;4.35;;;2.35;;
40555;SDS011;26250;45.422;11.100;2024-03-07T00:38:16;2.17;;;1.80;;
40555;SDS011;26250;45.422;11.100;2024-03-07T00:40:43;5.22;;;2.50;;
40555;SDS011;26250;45.422;11.100;2024-03-07T00:43:10;4.05;;;2.17;;
40555;SDS011;26250;45.422;11.100;2024-03-07T00:45:37;3.65;;;2.05;;
40555;SDS011;26250;45.422;11.100;2024-03-07T00:48:04;6.18;;;2.38;;
40555;SDS011;26250;45.422;11.100;2024-03-07T00:50:31;3.90;;;2.20;;
40555;SDS011;26250;45.422;11.100;2024-03-07T00:52:59;2.60;;;1.80;;
40555;SDS011;26250;45.422;11.100;2024-03-07T00:55:26;5.55;;;2.20;;
40555;SDS011;26250;45.422;11.100;2024-03-07T00:57:53;1.67;;;1.55;;
40555;SDS011;26250;45.422;11.100;2024-03-07T01:00:20;1.80;;;1.67;;
40555;SDS011;26250;45.422;11.100;2024-03-07T01:02:48;3.53;;;1.90;;
40555;SDS011;26250;45.422;11.100;2024-03-07T01:05:15;6.95;;;2.30;;
40555;SDS011;26250;45.422;11.100;2024-03-07T01:07:44;2.45;;;2.00;;
40555;SDS011;26250;45.422;11.100;2024-03-07T01:10:13;2.28;;;1.75;;
40555;SDS011;26250;45.422;11.100;2024-03-07T01:12:41;4.38;;;1.92;;
40555;SDS011;26250;45.422;11.100;2024-03-07T01:15:09;2.30;;;1.83;;
40555;SDS011;26250;45.422;11.100;2024-03-07T01:17:38;2.13;;;1.92;;
40555;SDS011;26250;45.422;11.100;2024-03-07T01:20:05;3.40;;;2.10;;
40555;SDS011;26250;45.422;11.100;2024-03-07T01:22:33;1.98;;;1.88;;
40555;SDS011;26250;45.422;11.100;2024-03-07T01:25:00;4.03;;;1.77;;
40555;SDS011;26250;45.422;11.100;2024-03-07T01:27:27;8.15;;;2.40;;
40555;SDS011;26250;45.422;11.100;2024-03-07T01:29:55;3.42;;;1.77;;
40555;SDS011;26250;45.422;11.100;2024-03-07T01:32:22;2.05;;;1.90;;
40555;SDS011;26250;45.422;11.100;2024-03-07T01:34:49;2.47;;;1.98;;
40555;SDS011;26250;45.422;11.100;2024-03-07T01:37:16;8.63;;;1.73;;
40555;SDS011;26250;45.422;11.100;2024-03-07T01:39:43;3.95;;;1.85;;
40555;SDS011;26250;45.422;11.100;2024-03-07T01:42:10;3.60;;;1.77;;
40555;SDS011;26250;45.422;11.100;2024-03-07T01:44:37;1.98;;;1.45;;
40555;SDS011;26250;45.422;11.100;2024-03-07T01:47:06;2.47;;;1.80;;
40555;SDS011;26250;45.422;11.100;2024-03-07T01:49:34;2.58;;;1.70;;
40555;SDS011;26250;45.422;11.100;2024-03-07T01:52:01;2.28;;;1.50;;
40555;SDS011;26250;45.422;11.100;2024-03-07T01:54:31;10.18;;;2.00;;
40555;SDS011;26250;45.422;11.100;2024-03-07T01:56:58;5.50;;;2.25;;
40555;SDS011;26250;45.422;11.100;2024-03-07T01:59:27;3.50;;;2.00;;
40555;SDS011;26250;45.422;11.100;2024-03-07T02:01:56;2.35;;;1.83;;
40555;SDS011;26250;45.422;11.100;2024-03-07T02:04:23;3.45;;;1.77;;
40555;SDS011;26250;45.422;11.100;2024-03-07T02:06:50;4.43;;;1.77;;
40555;SDS011;26250;45.422;11.100;2024-03-07T02:09:20;3.97;;;1.65;;
40555;SDS011;26250;45.422;11.100;2024-03-07T02:11:50;8.73;;;2.42;;
40555;SDS011;26250;45.422;11.100;2024-03-07T02:14:17;2.22;;;1.70;;
40555;SDS011;26250;45.422;11.100;2024-03-07T02:16:44;4.47;;;2.00;;
40555;SDS011;26250;45.422;11.100;2024-03-07T02:19:12;1.75;;;1.52;;
40555;SDS011;26250;45.422;11.100;2024-03-07T02:21:41;3.72;;;1.75;;
40555;SDS011;26250;45.422;11.100;2024-03-07T02:24:08;2.47;;;1.50;;
40555;SDS011;26250;45.422;11.100;2024-03-07T02:26:36;2.75;;;2.05;;
40555;SDS011;26250;45.422;11.100;2024-03-07T02:29:03;2.97;;;1.80;;
40555;SDS011;26250;45.422;11.100;2024-03-07T02:31:30;3.00;;;1.77;;
40555;SDS011;26250;45.422;11.100;2024-03-07T02:34:03;2.78;;;1.70;;
40555;SDS011;26250;45.422;11.100;2024-03-07T02:36:30;1.70;;;1.45;;
40555;SDS011;26250;45.422;11.100;2024-03-07T02:38:57;12.27;;;1.92;;
40555;SDS011;26250;45.422;11.100;2024-03-07T02:41:25;1.45;;;1.35;;
40555;SDS011;26250;45.422;11.100;2024-03-07T02:43:52;4.78;;;1.60;;
40555;SDS011;26250;45.422;11.100;2024-03-07T02:46:19;1.95;;;1.60;;
40555;SDS011;26250;45.422;11.100;2024-03-07T02:48:46;1.65;;;1.40;;
40555;SDS011;26250;45.422;11.100;2024-03-07T02:51:14;1.75;;;1.65;;
40555;SDS011;26250;45.422;11.100;2024-03-07T02:53:41;4.07;;;1.58;;
40555;SDS011;26250;45.422;11.100;2024-03-07T02:56:08;1.65;;;1.55;;
40555;SDS011;26250;45.422;11.100;2024-03-07T02:58:36;2.15;;;1.45;;
40555;SDS011;26250;45.422;11.100;2024-03-07T03:01:03;2.08;;;1.60;;
40555;SDS011;26250;45.422;11.100;2024-03-07T03:03:30;3.45;;;1.55;;
40555;SDS011;26250;45.422;11.100;2024-03-07T03:06:00;2.70;;;2.03;;
40555;SDS011;26250;45.422;11.100;2024-03-07T03:08:27;2.10;;;1.40;;
40555;SDS011;26250;45.422;11.100;2024-03-07T03:10:56;1.50;;;1.40;;
40555;SDS011;26250;45.422;11.100;2024-03-07T03:13:24;1.73;;;1.50;;
40555;SDS011;26250;45.422;11.100;2024-03-07T03:15:54;2.85;;;1.50;;
40555;SDS011;26250;45.422;11.100;2024-03-07T03:18:25;1.58;;;1.30;;
40555;SDS011;26250;45.422;11.100;2024-03-07T03:20:52;3.25;;;1.58;;
40555;SDS011;26250;45.422;11.100;2024-03-07T03:23:19;2.65;;;1.17;;
40555;SDS011;26250;45.422;11.100;2024-03-07T03:25:47;2.90;;;1.42;;
40555;SDS011;26250;45.422;11.100;2024-03-07T03:28:17;1.52;;;1.20;;
40555;SDS011;26250;45.422;11.100;2024-03-07T03:30:48;2.92;;;1.65;;
40555;SDS011;26250;45.422;11.100;2024-03-07T03:33:16;2.95;;;1.45;;
40555;SDS011;26250;45.422;11.100;2024-03-07T03:35:43;1.85;;;1.50;;
40555;SDS011;26250;45.422;11.100;2024-03-07T03:38:11;6.82;;;1.83;;
40555;SDS011;26250;45.422;11.100;2024-03-07T03:40:38;5.95;;;1.65;;
40555;SDS011;26250;45.422;11.100;2024-03-07T03:43:05;2.83;;;1.67;;
40555;SDS011;26250;45.422;11.100;2024-03-07T03:45:32;4.50;;;1.52;;
40555;SDS011;26250;45.422;11.100;2024-03-07T03:48:00;2.33;;;1.58;;
40555;SDS011;26250;45.422;11.100;2024-03-07T03:50:28;2.60;;;1.85;;
40555;SDS011;26250;45.422;11.100;2024-03-07T03:52:55;9.00;;;1.83;;
40555;SDS011;26250;45.422;11.100;2024-03-07T03:55:23;2.90;;;1.80;;
40555;SDS011;26250;45.422;11.100;2024-03-07T03:57:51;4.95;;;2.50;;
40555;SDS011;26250;45.422;11.100;2024-03-07T04:00:17;2.70;;;2.17;;
40555;SDS011;26250;45.422;11.100;2024-03-07T04:02:45;4.07;;;2.17;;
40555;SDS011;26250;45.422;11.100;2024-03-07T04:05:17;5.07;;;2.70;;
40555;SDS011;26250;45.422;11.100;2024-03-07T04:07:46;9.82;;;2.47;;
40555;SDS011;26250;45.422;11.100;2024-03-07T04:10:14;2.10;;;1.90;;
40555;SDS011;26250;45.422;11.100;2024-03-07T04:12:43;3.88;;;2.10;;
40555;SDS011;26250;45.422;11.100;2024-03-07T04:15:11;3.88;;;1.88;;
40555;SDS011;26250;45.422;11.100;2024-03-07T04:17:40;6.10;;;2.10;;
40555;SDS011;26250;45.422;11.100;2024-03-07T04:20:07;4.57;;;2.00;;
40555;SDS011;26250;45.422;11.100;2024-03-07T04:22:37;4.13;;;2.85;;
40555;SDS011;26250;45.422;11.100;2024-03-07T04:25:06;2.70;;;2.13;;
40555;SDS011;26250;45.422;11.100;2024-03-07T04:27:34;3.78;;;2.25;;
40555;SDS011;26250;45.422;11.100;2024-03-07T04:30:04;4.72;;;2.20;;
40555;SDS011;26250;45.422;11.100;2024-03-07T04:32:31;3.55;;;2.33;;
40555;SDS011;26250;45.422;11.100;2024-03-07T04:35:01;5.40;;;2.53;;
40555;SDS011;26250;45.422;11.100;2024-03-07T04:37:30;3.05;;;2.45;;
40555;SDS011;26250;45.422;11.100;2024-03-07T04:39:57;4.13;;;2.22;;
40555;SDS011;26250;45.422;11.100;2024-03-07T04:42:24;2.42;;;2.25;;
40555;SDS011;26250;45.422;11.100;2024-03-07T04:44:52;3.88;;;2.10;;
40555;SDS011;26250;45.422;11.100;2024-03-07T04:47:19;3.25;;;2.60;;
40555;SDS011;26250;45.422;11.100;2024-03-07T04:49:46;2.90;;;2.22;;
40555;SDS011;26250;45.422;11.100;2024-03-07T04:52:13;3.42;;;2.10;;
40555;SDS011;26250;45.422;11.100;2024-03-07T04:54:40;3.00;;;2.25;;
40555;SDS011;26250;45.422;11.100;2024-03-07T04:57:07;4.65;;;2.03;;
40555;SDS011;26250;45.422;11.100;2024-03-07T04:59:34;5.70;;;2.20;;
40555;SDS011;26250;45.422;11.100;2024-03-07T05:02:00;2.95;;;2.53;;
40555;SDS011;26250;45.422;11.100;2024-03-07T05:04:28;2.95;;;2.22;;
40555;SDS011;26250;45.422;11.100;2024-03-07T05:06:56;10.85;;;2.88;;
40555;SDS011;26250;45.422;11.100;2024-03-07T05:09:24;3.92;;;2.83;;
40555;SDS011;26250;45.422;11.100;2024-03-07T05:11:53;2.58;;;2.33;;
40555;SDS011;26250;45.422;11.100;2024-03-07T05:14:20;3.30;;;2.53;;
40555;SDS011;26250;45.422;11.100;2024-03-07T05:16:52;6.00;;;2.78;;
40555;SDS011;26250;45.422;11.100;2024-03-07T05:19:35;4.32;;;2.80;;
40555;SDS011;26250;45.422;11.100;2024-03-07T05:22:02;4.85;;;2.83;;
40555;SDS011;26250;45.422;11.100;2024-03-07T05:24:32;4.55;;;3.35;;
40555;SDS011;26250;45.422;11.100;2024-03-07T05:27:00;5.70;;;3.03;;
40555;SDS011;26250;45.422;11.100;2024-03-07T05:29:27;7.22;;;2.95;;
40555;SDS011;26250;45.422;11.100;2024-03-07T05:31:54;7.75;;;2.88;;
40555;SDS011;26250;45.422;11.100;2024-03-07T05:34:21;4.35;;;3.05;;
40555;SDS011;26250;45.422;11.100;2024-03-07T05:36:50;4.85;;;2.95;;
40555;SDS011;26250;45.422;11.100;2024-03-07T05:39:17;5.32;;;3.38;;
40555;SDS011;26250;45.422;11.100;2024-03-07T05:41:45;8.88;;;4.97;;
40555;SDS011;26250;45.422;11.100;2024-03-07T05:44:13;9.38;;;3.90;;
40555;SDS011;26250;45.422;11.100;2024-03-07T05:46:41;13.85;;;5.18;;
40555;SDS011;26250;45.422;11.100;2024-03-07T05:49:13;7.90;;;4.63;;
40555;SDS011;26250;45.422;11.100;2024-03-07T05:51:43;5.97;;;4.53;;
40555;SDS011;26250;45.422;11.100;2024-03-07T05:54:12;6.13;;;4.40;;
40555;SDS011;26250;45.422;11.100;2024-03-07T05:56:39;6.85;;;6.07;;
40555;SDS011;26250;45.422;11.100;2024-03-07T05:59:07;16.02;;;5.65;;
40555;SDS011;26250;45.422;11.100;2024-03-07T06:01:36;9.15;;;5.50;;
40555;SDS011;26250;45.422;11.100;2024-03-07T06:04:04;9.23;;;5.93;;
40555;SDS011;26250;45.422;11.100;2024-03-07T06:06:32;8.00;;;7.20;;
40555;SDS011;26250;45.422;11.100;2024-03-07T06:09:00;8.38;;;7.57;;
40555;SDS011;26250;45.422;11.100;2024-03-07T06:11:29;8.25;;;7.32;;
40555;SDS011;26250;45.422;11.100;2024-03-07T06:13:56;13.82;;;7.90;;
40555;SDS011;26250;45.422;11.100;2024-03-07T06:16:24;9.90;;;7.63;;
40555;SDS011;26250;45.422;11.100;2024-03-07T06:18:51;14.15;;;7.78;;
40555;SDS011;26250;45.422;11.100;2024-03-07T06:21:18;8.73;;;7.80;;
40555;SDS011;26250;45.422;11.100;2024-03-07T06:23:45;9.50;;;8.50;;
40555;SDS011;26250;45.422;11.100;2024-03-07T06:26:14;10.27;;;7.60;;
40555;SDS011;26250;45.422;11.100;2024-03-07T06:28:43;10.00;;;8.57;;
40555;SDS011;26250;45.422;11.100;2024-03-07T06:31:11;12.25;;;9.27;;
40555;SDS011;26250;45.422;11.100;2024-03-07T06:33:38;9.43;;;7.82;;
40555;SDS011;26250;45.422;11.100;2024-03-07T06:36:05;12.90;;;8.23;;
40555;SDS011;26250;45.422;11.100;2024-03-07T06:38:32;11.63;;;8.77;;
40555;SDS011;26250;45.422;11.100;2024-03-07T06:40:59;10.52;;;8.52;;
40555;SDS011;26250;45.422;11.100;2024-03-07T06:43:26;12.75;;;11.00;;
40555;SDS011;26250;45.422;11.100;2024-03-07T06:45:53;12.80;;;9.00;;
40555;SDS011;26250;45.422;11.100;2024-03-07T06:48:21;11.82;;;8.40;;
40555;SDS011;26250;45.422;11.100;2024-03-07T06:50:48;9.27;;;7.45;;
40555;SDS011;26250;45.422;11.100;2024-03-07T06:53:15;7.30;;;6.70;;
40555;SDS011;26250;45.422;11.100;2024-03-07T06:55:43;9.65;;;8.52;;
40555;SDS011;26250;45.422;11.100;2024-03-07T06:58:10;9.02;;;8.13;;
40555;SDS011;26250;45.422;11.100;2024-03-07T07:00:37;11.95;;;7.55;;
40555;SDS011;26250;45.422;11.100;2024-03-07T07:03:04;9.45;;;7.35;;
40555;SDS011;26250;45.422;11.100;2024-03-07T07:05:32;11.05;;;8.15;;
40555;SDS011;26250;45.422;11.100;2024-03-07T07:08:00;12.02;;;8.13;;
40555;SDS011;26250;45.422;11.100;2024-03-07T07:10:28;9.75;;;8.52;;
40555;SDS011;26250;45.422;11.100;2024-03-07T07:12:57;19.83;;;7.28;;
40555;SDS011;26250;45.422;11.100;2024-03-07T07:15:24;12.13;;;7.53;;
40555;SDS011;26250;45.422;11.100;2024-03-07T07:17:52;10.88;;;8.70;;
40555;SDS011;26250;45.422;11.100;2024-03-07T07:20:19;7.95;;;6.57;;
40555;SDS011;26250;45.422;11.100;2024-03-07T07:22:47;7.93;;;6.85;;
40555;SDS011;26250;45.422;11.100;2024-03-07T07:25:15;9.68;;;6.78;;
40555;SDS011;26250;45.422;11.100;2024-03-07T07:27:43;18.55;;;7.90;;
40555;SDS011;26250;45.422;11.100;2024-03-07T07:30:12;7.75;;;6.55;;
40555;SDS011;26250;45.422;11.100;2024-03-07T07:32:41;6.90;;;5.85;;
40555;SDS011;26250;45.422;11.100;2024-03-07T07:35:10;9.30;;;6.70;;
40555;SDS011;26250;45.422;11.100;2024-03-07T07:37:41;16.50;;;7.32;;
40555;SDS011;26250;45.422;11.100;2024-03-07T07:40:11;9.90;;;7.20;;
40555;SDS011;26250;45.422;11.100;2024-03-07T07:42:41;7.80;;;7.00;;
40555;SDS011;26250;45.422;11.100;2024-03-07T07:45:09;10.98;;;6.28;;
40555;SDS011;26250;45.422;11.100;2024-03-07T07:47:40;10.47;;;7.07;;
40555;SDS011;26250;45.422;11.100;2024-03-07T07:50:14;12.13;;;7.70;;
40555;SDS011;26250;45.422;11.100;2024-03-07T07:52:55;13.85;;;7.03;;
40555;SDS011;26250;45.422;11.100;2024-03-07T07:55:24;10.45;;;6.70;;
40555;SDS011;26250;45.422;11.100;2024-03-07T07:57:55;10.75;;;6.88;;
40555;SDS011;26250;45.422;11.100;2024-03-07T08:00:24;8.38;;;5.82;;
40555;SDS011;26250;45.422;11.100;2024-03-07T08:02:53;16.17;;;7.35;;
40555;SDS011;26250;45.422;11.100;2024-03-07T08:05:24;14.25;;;6.70;;
40555;SDS011;26250;45.422;11.100;2024-03-07T08:07:56;12.73;;;7.43;;
40555;SDS011;26250;45.422;11.100;2024-03-07T08:10:26;11.98;;;7.30;;
40555;SDS011;26250;45.422;11.100;2024-03-07T08:12:59;15.43;;;7.38;;
40555;SDS011;26250;45.422;11.100;2024-03-07T08:15:28;22.40;;;7.50;;
40555;SDS011;26250;45.422;11.100;2024-03-07T08:17:56;10.50;;;6.82;;
40555;SDS011;26250;45.422;11.100;2024-03-07T08:20:24;15.88;;;7.50;;
40555;SDS011;26250;45.422;11.100;2024-03-07T08:22:53;24.10;;;8.35;;
40555;SDS011;26250;45.422;11.100;2024-03-07T08:25:22;16.58;;;7.75;;
40555;SDS011;26250;45.422;11.100;2024-03-07T08:27:52;11.35;;;7.13;;
40555;SDS011;26250;45.422;11.100;2024-03-07T08:30:21;11.88;;;7.90;;
40555;SDS011;26250;45.422;11.100;2024-03-07T08:32:53;19.92;;;8.77;;
40555;SDS011;26250;45.422;11.100;2024-03-07T08:35:24;21.35;;;8.88;;
40555;SDS011;26250;45.422;11.100;2024-03-07T08:37:52;21.25;;;10.85;;
40555;SDS011;26250;45.422;11.100;2024-03-07T08:40:21;34.95;;;13.15;;
40555;SDS011;26250;45.422;11.100;2024-03-07T08:42:58;26.95;;;14.98;;
40555;SDS011;26250;45.422;11.100;2024-03-07T08:45:26;30.88;;;12.90;;
40555;SDS011;26250;45.422;11.100;2024-03-07T08:47:54;18.48;;;11.65;;
40555;SDS011;26250;45.422;11.100;2024-03-07T08:50:25;11.50;;;9.98;;
40555;SDS011;26250;45.422;11.100;2024-03-07T08:52:53;16.58;;;8.93;;
40555;SDS011;26250;45.422;11.100;2024-03-07T08:55:22;21.55;;;8.88;;
40555;SDS011;26250;45.422;11.100;2024-03-07T08:57:52;14.90;;;8.30;;
40555;SDS011;26250;45.422;11.100;2024-03-07T09:00:19;17.88;;;7.97;;
40555;SDS011;26250;45.422;11.100;2024-03-07T09:02:57;19.73;;;8.63;;
40555;SDS011;26250;45.422;11.100;2024-03-07T09:05:30;10.70;;;7.80;;
40555;SDS011;26250;45.422;11.100;2024-03-07T09:08:00;21.48;;;8.65;;
40555;SDS011;26250;45.422;11.100;2024-03-07T09:10:37;22.50;;;8.52;;
40555;SDS011;26250;45.422;11.100;2024-03-07T09:13:10;26.63;;;9.50;;
40555;SDS011;26250;45.422;11.100;2024-03-07T09:15:38;32.40;;;9.25;;
40555;SDS011;26250;45.422;11.100;2024-03-07T09:18:05;34.55;;;10.75;;
40555;SDS011;26250;45.422;11.100;2024-03-07T09:20:35;23.23;;;9.88;;
40555;SDS011;26250;45.422;11.100;2024-03-07T09:23:03;24.95;;;9.35;;
40555;SDS011;26250;45.422;11.100;2024-03-07T09:25:30;12.85;;;6.22;;
40555;SDS011;26250;45.422;11.100;2024-03-07T09:27:59;20.42;;;7.97;;
40555;SDS011;26250;45.422;11.100;2024-03-07T09:30:26;14.90;;;7.75;;
40555;SDS011;26250;45.422;11.100;2024-03-07T09:32:59;14.35;;;6.45;;
40555;SDS011;26250;45.422;11.100;2024-03-07T09:35:28;28.45;;;8.55;;
40555;SDS011;26250;45.422;11.100;2024-03-07T09:38:16;21.20;;;7.65;;
40555;SDS011;26250;45.422;11.100;2024-03-07T09:40:58;25.75;;;9.48;;
40555;SDS011;26250;45.422;11.100;2024-03-07T09:43:46;18.05;;;8.60;;
40555;SDS011;26250;45.422;11.100;2024-03-07T09:48:45;19.83;;;9.40;;
40555;SDS011;26250;45.422;11.100;2024-03-07T09:51:12;27.02;;;9.50;;
40555;SDS011;26250;45.422;11.100;2024-03-07T09:53:43;38.95;;;11.75;;
40555;SDS011;26250;45.422;11.100;2024-03-07T09:56:13;25.15;;;8.65;;
40555;SDS011;26250;45.422;11.100;2024-03-07T09:58:43;21.77;;;9.45;;
40555;SDS011;26250;45.422;11.100;2024-03-07T10:01:22;16.55;;;7.85;;
40555;SDS011;26250;45.422;11.100;2024-03-07T10:03:58;25.65;;;8.45;;
40555;SDS011;26250;45.422;11.100;2024-03-07T10:06:37;12.10;;;8.77;;
40555;SDS011;26250;45.422;11.100;2024-03-07T10:09:07;17.80;;;10.27;;
40555;SDS011;26250;45.422;11.100;2024-03-07T10:11:35;27.33;;;11.10;;
40555;SDS011;26250;45.422;11.100;2024-03-07T10:14:02;17.95;;;10.43;;
40555;SDS011;26250;45.422;11.100;2024-03-07T10:16:31;37.35;;;11.55;;
40555;SDS011;26250;45.422;11.100;2024-03-07T10:18:59;15.38;;;11.57;;
40555;SDS011;26250;45.422;11.100;2024-03-07T10:21:29;37.78;;;13.57;;
40555;SDS011;26250;45.422;11.100;2024-03-07T10:24:09;22.70;;;11.68;;
40555;SDS011;26250;45.422;11.100;2024-03-07T10:26:37;17.73;;;10.00;;
40555;SDS011;26250;45.422;11.100;2024-03-07T10:29:04;17.73;;;11.25;;
40555;SDS011;26250;45.422;11.100;2024-03-07T10:31:32;33.20;;;13.43;;
40555;SDS011;26250;45.422;11.100;2024-03-07T10:34:04;16.75;;;11.40;;
40555;SDS011;26250;45.422;11.100;2024-03-07T10:36:31;19.20;;;11.73;;
40555;SDS011;26250;45.422;11.100;2024-03-07T10:38:59;22.48;;;12.18;;
40555;SDS011;26250;45.422;11.100;2024-03-07T10:41:51;33.50;;;14.25;;
40555;SDS011;26250;45.422;11.100;2024-03-07T10:44:20;37.67;;;13.68;;
40555;SDS011;26250;45.422;11.100;2024-03-07T10:46:53;19.80;;;13.02;;
40555;SDS011;26250;45.422;11.100;2024-03-07T10:49:21;27.98;;;11.85;;
40555;SDS011;26250;45.422;11.100;2024-03-07T10:52:03;30.08;;;12.30;;
40555;SDS011;26250;45.422;11.100;2024-03-07T10:55:00;23.15;;;13.05;;
40555;SDS011;26250;45.422;11.100;2024-03-07T11:00:15;19.42;;;11.18;;
40555;SDS011;26250;45.422;11.100;2024-03-07T11:03:02;10.98;;;9.82;;
40555;SDS011;26250;45.422;11.100;2024-03-07T11:05:35;22.38;;;12.50;;
40555;SDS011;26250;45.422;11.100;2024-03-07T11:08:03;22.27;;;13.27;;
40555;SDS011;26250;45.422;11.100;2024-03-07T11:10:40;22.23;;;10.93;;
40555;SDS011;26250;45.422;11.100;2024-03-07T11:13:09;20.92;;;11.57;;
40555;SDS011;26250;45.422;11.100;2024-03-07T11:15:43;33.40;;;11.88;;
40555;SDS011;26250;45.422;11.100;2024-03-07T11:18:15;25.55;;;11.65;;
40555;SDS011;26250;45.422;11.100;2024-03-07T11:20:46;22.50;;;11.95;;
40555;SDS011;26250;45.422;11.100;2024-03-07T11:26:11;29.30;;;11.60;;
40555;SDS011;26250;45.422;11.100;2024-03-07T11:28:41;22.45;;;9.95;;
40555;SDS011;26250;45.422;11.100;2024-03-07T11:31:14;11.50;;;9.80;;
40555;SDS011;26250;45.422;11.100;2024-03-07T11:34:15;25.10;;;9.48;;
40555;SDS011;26250;45.422;11.100;2024-03-07T11:36:57;22.60;;;9.13;;
40555;SDS011;26250;45.422;11.100;2024-03-07T11:40:00;13.57;;;8.65;;
40555;SDS011;26250;45.422;11.100;2024-03-07T11:42:22;15.95;;;7.03;;
40555;SDS011;26250;45.422;11.100;2024-03-07T11:47:26;14.20;;;7.57;;
40555;SDS011;26250;45.422;11.100;2024-03-07T11:50:02;21.48;;;9.73;;
40555;SDS011;26250;45.422;11.100;2024-03-07T11:52:35;15.25;;;9.07;;
40555;SDS011;26250;45.422;11.100;2024-03-07T11:55:03;12.75;;;8.50;;
40555;SDS011;26250;45.422;11.100;2024-03-07T11:57:31;25.08;;;11.50;;
40555;SDS011;26250;45.422;11.100;2024-03-07T12:00:02;25.02;;;8.57;;
40555;SDS011;26250;45.422;11.100;2024-03-07T12:02:39;13.18;;;6.95;;
40555;SDS011;26250;45.422;11.100;2024-03-07T12:05:07;12.73;;;7.68;;
40555;SDS011;26250;45.422;11.100;2024-03-07T12:07:35;11.63;;;6.85;;
40555;SDS011;26250;45.422;11.100;2024-03-07T12:10:03;13.52;;;6.68;;
40555;SDS011;26250;45.422;11.100;2024-03-07T12:12:31;9.00;;;6.00;;
40555;SDS011;26250;45.422;11.100;2024-03-07T12:15:00;9.98;;;6.75;;
40555;SDS011;26250;45.422;11.100;2024-03-07T12:17:31;15.97;;;7.20;;
40555;SDS011;26250;45.422;11.100;2024-03-07T12:19:59;10.77;;;7.07;;
40555;SDS011;26250;45.422;11.100;2024-03-07T12:22:29;11.65;;;6.68;;
40555;SDS011;26250;45.422;11.100;2024-03-07T12:25:00;21.75;;;7.75;;
40555;SDS011;26250;45.422;11.100;2024-03-07T12:27:29;18.70;;;8.60;;
40555;SDS011;26250;45.422;11.100;2024-03-07T12:29:56;16.05;;;6.32;;
40555;SDS011;26250;45.422;11.100;2024-03-07T12:32:24;10.00;;;7.55;;
40555;SDS011;26250;45.422;11.100;2024-03-07T12:34:52;18.40;;;8.35;;
40555;SDS011;26250;45.422;11.100;2024-03-07T12:37:19;13.02;;;8.65;;
40555;SDS011;26250;45.422;11.100;2024-03-07T12:39:53;15.02;;;8.07;;
40555;SDS011;26250;45.422;11.100;2024-03-07T12:42:28;14.05;;;8.60;;
40555;SDS011;26250;45.422;11.100;2024-03-07T12:44:55;19.75;;;9.20;;
40555;SDS011;26250;45.422;11.100;2024-03-07T12:47:25;17.55;;;10.30;;
40555;SDS011;26250;45.422;11.100;2024-03-07T12:49:52;25.00;;;9.68;;
40555;SDS011;26250;45.422;11.100;2024-03-07T12:52:19;14.00;;;9.95;;
40555;SDS011;26250;45.422;11.100;2024-03-07T12:54:46;15.45;;;9.52;;
40555;SDS011;26250;45.422;11.100;2024-03-07T12:57:14;18.50;;;9.13;;
40555;SDS011;26250;45.422;11.100;2024-03-07T12:59:41;17.23;;;8.50;;
40555;SDS011;26250;45.422;11.100;2024-03-07T13:02:09;36.55;;;9.43;;
40555;SDS011;26250;45.422;11.100;2024-03-07T13:04:37;21.35;;;9.48;;
40555;SDS011;26250;45.422;11.100;2024-03-07T13:07:07;29.92;;;11.27;;
40555;SDS011;26250;45.422;11.100;2024-03-07T13:09:34;11.30;;;9.50;;
40555;SDS011;26250;45.422;11.100;2024-03-07T13:12:01;12.32;;;9.48;;
40555;SDS011;26250;45.422;11.100;2024-03-07T13:14:30;31.73;;;12.18;;
40555;SDS011;26250;45.422;11.100;2024-03-07T13:17:00;10.82;;;8.63;;
40555;SDS011;26250;45.422;11.100;2024-03-07T13:19:28;18.98;;;9.20;;
40555;SDS011;26250;45.422;11.100;2024-03-07T13:21:56;16.90;;;9.60;;
40555;SDS011;26250;45.422;11.100;2024-03-07T13:24:24;12.02;;;9.55;;
40555;SDS011;26250;45.422;11.100;2024-03-07T13:26:53;14.50;;;9.98;;
40555;SDS011;26250;45.422;11.100;2024-03-07T13:29:21;23.15;;;10.52;;
40555;SDS011;26250;45.422;11.100;2024-03-07T13:31:51;14.00;;;9.82;;
40555;SDS011;26250;45.422;11.100;2024-03-07T13:34:21;10.60;;;8.07;;
40555;SDS011;26250;45.422;11.100;2024-03-07T13:36:52;11.98;;;8.68;;
40555;SDS011;26250;45.422;11.100;2024-03-07T13:39:19;18.65;;;9.18;;
40555;SDS011;26250;45.422;11.100;2024-03-07T13:41:46;18.33;;;8.88;;
40555;SDS011;26250;45.422;11.100;2024-03-07T13:44:15;19.35;;;8.65;;
40555;SDS011;26250;45.422;11.100;2024-03-07T13:46:42;16.98;;;9.43;;
40555;SDS011;26250;45.422;11.100;2024-03-07T13:49:09;12.07;;;8.25;;
40555;SDS011;26250;45.422;11.100;2024-03-07T13:51:40;12.57;;;8.45;;
40555;SDS011;26250;45.422;11.100;2024-03-07T13:54:17;21.45;;;8.75;;
40555;SDS011;26250;45.422;11.100;2024-03-07T13:59:54;10.20;;;7.80;;
40555;SDS011;26250;45.422;11.100;2024-03-07T14:31:06;13.88;;;8.50;;
40555;SDS011;26250;45.422;11.100;2024-03-07T14:33:50;12.82;;;7.93;;
40555;SDS011;26250;45.422;11.100;2024-03-07T14:36:46;12.48;;;8.23;;
40555;SDS011;26250;45.422;11.100;2024-03-07T14:39:18;15.40;;;8.77;;
40555;SDS011;26250;45.422;11.100;2024-03-07T14:41:52;12.75;;;8.35;;
40555;SDS011;26250;45.422;11.100;2024-03-07T14:44:25;9.88;;;7.50;;
40555;SDS011;26250;45.422;11.100;2024-03-07T14:47:00;12.35;;;8.82;;
40555;SDS011;26250;45.422;11.100;2024-03-07T14:49:33;15.68;;;8.80;;
40555;SDS011;26250;45.422;11.100;2024-03-07T14:52:00;9.73;;;8.23;;
40555;SDS011;26250;45.422;11.100;2024-03-07T14:54:38;20.58;;;7.45;;
40555;SDS011;26250;45.422;11.100;2024-03-07T14:57:05;10.23;;;8.77;;
40555;SDS011;26250;45.422;11.100;2024-03-07T15:02:08;14.40;;;8.55;;
40555;SDS011;26250;45.422;11.100;2024-03-07T15:04:39;12.90;;;8.80;;
40555;SDS011;26250;45.422;11.100;2024-03-07T15:07:08;11.18;;;8.43;;
40555;SDS011;26250;45.422;11.100;2024-03-07T15:09:36;10.55;;;9.45;;
40555;SDS011;26250;45.422;11.100;2024-03-07T15:12:05;23.38;;;10.05;;
40555;SDS011;26250;45.422;11.100;2024-03-07T15:14:33;20.50;;;9.35;;
40555;SDS011;26250;45.422;11.100;2024-03-07T15:17:05;11.63;;;10.27;;
40555;SDS011;26250;45.422;11.100;2024-03-07T15:19:33;11.05;;;9.80;;
40555;SDS011;26250;45.422;11.100;2024-03-07T15:22:03;14.75;;;9.38;;
40555;SDS011;26250;45.422;11.100;2024-03-07T15:24:31;14.20;;;8.82;;